createdAt,value
2019-02-07T00:00:44.656Z,0.90
2019-02-07T00:03:15.991Z,0.70
2019-02-07T00:05:47.206Z,0.70
2019-02-07T00:08:18.642Z,0.60
2019-02-07T00:10:51.012Z,0.60
2019-02-07T00:13:22.344Z,0.60
2019-02-07T00:15:54.061Z,0.60
2019-02-07T00:18:25.126Z,0.50
2019-02-07T00:20:56.392Z,0.50
2019-02-07T00:23:27.634Z,0.40
2019-02-07T00:25:58.770Z,0.40
2019-02-07T00:28:29.900Z,0.40
2019-02-07T00:31:00.983Z,0.30
2019-02-07T00:33:32.197Z,0.40
2019-02-07T00:36:03.589Z,0.30
2019-02-07T00:38:35.099Z,0.30
2019-02-07T00:41:06.550Z,0.30
2019-02-07T00:43:38.726Z,0.30
2019-02-07T00:46:09.907Z,0.30
2019-02-07T00:48:42.393Z,0.30
2019-02-07T00:51:13.770Z,0.40
2019-02-07T00:53:45.349Z,0.40
2019-02-07T00:56:16.387Z,0.50
2019-02-07T00:58:47.849Z,0.40
2019-02-07T01:01:19.628Z,0.40
2019-02-07T01:03:51.425Z,0.50
2019-02-07T01:06:22.671Z,0.50
2019-02-07T01:08:54.368Z,0.50
2019-02-07T01:11:25.677Z,0.50
2019-02-07T01:13:56.823Z,0.50
2019-02-07T01:16:28.078Z,0.40
2019-02-07T01:18:59.133Z,0.30
2019-02-07T01:21:30.447Z,0.30
2019-02-07T01:24:01.632Z,0.30
2019-02-07T01:26:32.773Z,0.20
2019-02-07T01:29:04.116Z,0.20
2019-02-07T01:31:35.207Z,0.10
2019-02-07T01:34:06.295Z,0.10
2019-02-07T01:36:37.347Z,0.10
2019-02-07T01:39:10.905Z,0.00
2019-02-07T01:41:41.944Z,0.00
2019-02-07T01:44:13.092Z,0.00
2019-02-07T01:46:43.779Z,0.00
2019-02-07T01:49:14.443Z,-0.10
2019-02-07T01:51:45.905Z,-0.20
2019-02-07T01:54:16.579Z,-0.30
2019-02-07T01:56:47.883Z,-0.40
2019-02-07T01:59:19.218Z,-0.40
2019-02-07T02:01:50.296Z,-0.40
2019-02-07T02:04:22.061Z,-0.50
2019-02-07T02:06:54.109Z,-0.60
2019-02-07T02:09:25.361Z,-0.60
2019-02-07T02:11:57.380Z,-0.60
2019-02-07T02:14:29.405Z,-0.70
2019-02-07T02:17:01.131Z,-0.70
2019-02-07T02:19:32.455Z,-0.80
2019-02-07T02:22:04.032Z,-0.80
2019-02-07T02:24:35.345Z,-0.80
2019-02-07T02:27:06.731Z,-0.80
2019-02-07T02:29:38.753Z,-0.80
2019-02-07T02:32:10.565Z,-0.80
2019-02-07T02:34:41.887Z,-0.90
2019-02-07T02:37:13.567Z,-0.90
2019-02-07T02:39:46.451Z,-0.90
2019-02-07T02:42:17.828Z,-0.90
2019-02-07T02:44:49.169Z,-1.00
2019-02-07T02:47:20.263Z,-1.00
2019-02-07T02:49:51.651Z,-0.90
2019-02-07T02:52:22.840Z,-1.00
2019-02-07T02:54:56.039Z,-1.00
2019-02-07T02:57:26.833Z,-1.00
2019-02-07T02:59:58.291Z,-1.10
2019-02-07T03:02:51.156Z,-1.20
2019-02-07T03:05:41.281Z,-1.20
2019-02-07T03:08:37.133Z,-1.10
2019-02-07T03:11:42.595Z,-1.10
2019-02-07T03:14:32.606Z,-1.00
2019-02-07T03:17:37.684Z,-1.10
2019-02-07T03:20:34.598Z,-1.10
2019-02-07T03:23:24.590Z,-1.10
2019-02-07T03:26:24.722Z,-1.20
2019-02-07T03:29:29.473Z,-1.20
2019-02-07T03:32:16.219Z,-1.20
2019-02-07T03:34:59.665Z,-1.20
2019-02-07T03:37:55.644Z,-1.10
2019-02-07T03:40:44.833Z,-1.20
2019-02-07T03:43:41.109Z,-1.20
2019-02-07T03:46:29.535Z,-1.20
2019-02-07T03:49:20.334Z,-1.30
2019-02-07T03:52:09.376Z,-1.30
2019-02-07T03:54:54.705Z,-1.20
2019-02-07T03:57:59.794Z,-1.10
2019-02-07T04:00:41.145Z,-1.20
2019-02-07T04:03:40.180Z,-1.30
2019-02-07T04:06:33.548Z,-1.30
2019-02-07T04:09:44.662Z,-1.30
2019-02-07T04:12:37.772Z,-1.40
2019-02-07T04:15:30.972Z,-1.40
2019-02-07T04:18:19.509Z,-1.30
2019-02-07T04:21:04.884Z,-1.30
2019-02-07T04:23:53.706Z,-1.30
2019-02-07T04:26:43.852Z,-1.30
2019-02-07T04:29:39.065Z,-1.40
2019-02-07T04:32:29.121Z,-1.40
2019-02-07T04:35:24.731Z,-1.50
2019-02-07T04:38:11.044Z,-1.60
2019-02-07T04:41:07.395Z,-1.60
2019-02-07T04:43:56.169Z,-1.60
2019-02-07T04:46:44.921Z,-1.60
2019-02-07T04:49:35.349Z,-1.50
2019-02-07T04:52:40.802Z,-1.60
2019-02-07T04:55:30.874Z,-1.70
2019-02-07T04:58:22.395Z,-1.70
2019-02-07T05:01:18.720Z,-1.70
2019-02-07T05:04:24.435Z,-1.60
2019-02-07T05:07:14.447Z,-1.60
2019-02-07T05:10:08.200Z,-1.70
2019-02-07T05:12:54.259Z,-1.70
2019-02-07T05:15:50.004Z,-1.80
2019-02-07T05:18:38.921Z,-1.80
2019-02-07T05:21:27.423Z,-1.70
2019-02-07T05:24:21.243Z,-1.70
2019-02-07T05:27:13.245Z,-1.80
2019-02-07T05:30:18.105Z,-1.70
2019-02-07T05:33:19.980Z,-1.80
2019-02-07T05:36:20.010Z,-1.80
2019-02-07T05:39:04.424Z,-1.90
2019-02-07T05:41:58.957Z,-2.00
2019-02-07T05:47:32.070Z,-1.90
2019-02-07T05:50:16.448Z,-1.90
2019-02-07T05:53:24.202Z,-1.90
2019-02-07T05:56:16.338Z,-1.90
2019-02-07T05:59:06.534Z,-1.90
2019-02-07T06:02:05.749Z,-1.90
2019-02-07T06:05:10.403Z,-1.90
2019-02-07T06:07:59.728Z,-1.90
2019-02-07T06:10:48.252Z,-1.90
2019-02-07T06:13:46.996Z,-1.90
2019-02-07T06:16:35.214Z,-1.90
2019-02-07T06:19:23.540Z,-1.80
2019-02-07T06:22:09.966Z,-1.70
2019-02-07T06:24:58.590Z,-1.80
2019-02-07T06:28:00.397Z,-1.70
2019-02-07T06:30:52.939Z,-1.80
2019-02-07T06:33:41.758Z,-1.90
2019-02-07T06:36:31.298Z,-1.80
2019-02-07T06:39:19.585Z,-1.90
2019-02-07T06:42:01.991Z,-1.90
2019-02-07T06:44:48.973Z,-1.80
2019-02-07T06:47:41.296Z,-1.80
2019-02-07T06:50:30.836Z,-1.80
2019-02-07T06:53:15.643Z,-1.70
2019-02-07T06:56:04.224Z,-1.70
2019-02-07T06:58:55.268Z,-1.60
2019-02-07T07:01:42.425Z,-1.60
2019-02-07T07:04:27.005Z,-1.50
2019-02-07T07:07:16.034Z,-1.30
2019-02-07T07:10:09.961Z,-1.20
2019-02-07T07:12:59.441Z,-1.20
2019-02-07T07:15:52.807Z,-1.10
2019-02-07T07:18:57.368Z,-1.10
2019-02-07T07:21:45.715Z,-1.10
2019-02-07T07:24:35.300Z,-1.00
2019-02-07T07:27:27.869Z,-0.90
2019-02-07T07:30:23.187Z,-0.90
2019-02-07T07:33:12.111Z,-0.80
2019-02-07T07:36:01.740Z,-0.70
2019-02-07T07:38:49.398Z,-0.60
2019-02-07T07:41:39.814Z,-0.40
2019-02-07T07:44:32.698Z,-0.20
2019-02-07T07:47:12.693Z,0.00
2019-02-07T07:50:17.678Z,0.20
2019-02-07T07:53:05.980Z,0.40
2019-02-07T07:55:47.575Z,0.30
2019-02-07T07:58:35.781Z,0.50
2019-02-07T08:01:24.943Z,0.70
2019-02-07T08:04:30.381Z,0.60
2019-02-07T08:07:20.221Z,0.80
2019-02-07T08:10:11.719Z,1.00
2019-02-07T08:12:55.897Z,1.00
2019-02-07T08:15:36.311Z,1.10
2019-02-07T08:18:27.217Z,1.20
2019-02-07T08:21:15.651Z,1.30
2019-02-07T08:24:14.587Z,1.40
2019-02-07T08:27:03.150Z,1.60
2019-02-07T08:29:51.667Z,1.50
2019-02-07T08:32:50.323Z,1.60
2019-02-07T08:35:41.543Z,1.70
2019-02-07T08:38:26.756Z,1.60
2019-02-07T08:41:22.881Z,1.60
2019-02-07T08:44:24.216Z,1.70
2019-02-07T08:47:14.223Z,1.90
2019-02-07T08:50:13.180Z,1.90
2019-02-07T08:52:59.135Z,2.10
2019-02-07T08:55:47.553Z,2.30
2019-02-07T08:58:36.705Z,2.50
2019-02-07T09:01:28.605Z,2.50
2019-02-07T09:04:13.442Z,2.70
2019-02-07T09:07:22.044Z,2.80
2019-02-07T09:10:14.730Z,2.80
2019-02-07T09:13:03.091Z,3.00
2019-02-07T09:15:51.954Z,3.10
2019-02-07T09:18:33.564Z,3.10
2019-02-07T09:21:28.507Z,3.20
2019-02-07T09:24:17.388Z,3.10
2019-02-07T09:27:06.356Z,3.10
2019-02-07T09:29:53.575Z,3.20
2019-02-07T09:32:42.463Z,3.10
2019-02-07T09:35:32.262Z,3.10
2019-02-07T09:38:40.052Z,3.10
2019-02-07T09:41:28.178Z,3.20
2019-02-07T09:44:21.160Z,3.30
2019-02-07T09:47:09.639Z,3.40
2019-02-07T09:50:02.783Z,3.50
2019-02-07T09:52:51.581Z,3.50
2019-02-07T09:55:43.987Z,3.60
2019-02-07T09:58:33.590Z,3.80
2019-02-07T10:01:23.449Z,3.70
2019-02-07T10:04:13.083Z,3.70
2019-02-07T10:06:56.401Z,3.60
2019-02-07T10:09:58.746Z,3.80
2019-02-07T10:12:51.090Z,3.80
2019-02-07T10:15:46.788Z,3.80
2019-02-07T10:18:40.027Z,4.00
2019-02-07T10:21:28.898Z,4.00
2019-02-07T10:24:28.689Z,4.30
2019-02-07T10:27:19.390Z,4.40
2019-02-07T10:30:04.894Z,4.50
2019-02-07T10:32:54.415Z,4.40
2019-02-07T10:35:42.488Z,4.60
2019-02-07T10:38:22.590Z,4.80
2019-02-07T10:41:27.665Z,5.00
2019-02-07T10:44:23.316Z,5.20
2019-02-07T10:47:19.212Z,5.50
2019-02-07T10:50:08.720Z,5.40
2019-02-07T10:52:53.929Z,5.50
2019-02-07T10:55:58.888Z,5.50
2019-02-07T10:58:48.379Z,5.40
2019-02-07T11:01:39.200Z,5.40
2019-02-07T11:04:24.085Z,5.40
2019-02-07T11:07:32.884Z,5.50
2019-02-07T11:10:27.985Z,5.30
2019-02-07T11:13:16.716Z,5.50
2019-02-07T11:16:18.510Z,5.40
2019-02-07T11:18:57.800Z,5.30
2019-02-07T11:21:50.162Z,5.30
2019-02-07T11:24:39.006Z,5.10
2019-02-07T11:27:27.270Z,5.20
2019-02-07T11:30:15.428Z,5.10
2019-02-07T11:33:04.357Z,5.30
2019-02-07T11:35:49.673Z,5.30
2019-02-07T11:38:45.296Z,5.30
2019-02-07T11:41:37.381Z,5.40
2019-02-07T11:44:32.868Z,5.40
2019-02-07T11:47:14.031Z,5.40
2019-02-07T11:50:02.453Z,5.60
2019-02-07T11:52:58.112Z,5.60
2019-02-07T11:55:48.046Z,5.60
2019-02-07T11:58:37.722Z,5.70
2019-02-07T12:01:21.321Z,5.40
2019-02-07T12:04:09.651Z,5.50
2019-02-07T12:06:58.827Z,5.50
2019-02-07T12:09:54.950Z,5.70
2019-02-07T12:12:44.488Z,5.60
2019-02-07T12:15:32.921Z,5.50
2019-02-07T12:18:28.721Z,5.50
2019-02-07T12:21:27.217Z,5.40
2019-02-07T12:24:25.364Z,5.40
2019-02-07T12:27:13.733Z,5.30
2019-02-07T12:30:06.174Z,5.20
2019-02-07T12:33:05.714Z,5.10
2019-02-07T12:36:01.283Z,5.10
2019-02-07T12:38:41.791Z,5.40
2019-02-07T12:41:30.356Z,5.10
2019-02-07T12:44:35.060Z,5.00
2019-02-07T12:47:26.076Z,5.00
2019-02-07T12:50:14.268Z,5.10
2019-02-07T12:53:10.093Z,5.00
2019-02-07T12:55:58.405Z,4.80
2019-02-07T12:58:47.108Z,4.70
2019-02-07T13:01:37.826Z,4.60
2019-02-07T13:04:33.397Z,4.60
2019-02-07T13:07:22.444Z,4.60
2019-02-07T13:10:15.946Z,4.50
2019-02-07T13:13:00.081Z,4.50
2019-02-07T13:16:02.267Z,4.60
2019-02-07T13:18:57.798Z,4.60
2019-02-07T13:21:53.435Z,4.60
2019-02-07T13:24:35.536Z,4.50
2019-02-07T13:27:24.415Z,4.70
2019-02-07T13:30:19.342Z,4.70
2019-02-07T13:33:09.630Z,4.60
2019-02-07T13:35:50.037Z,4.70
2019-02-07T13:38:38.544Z,4.50
2019-02-07T13:41:46.772Z,4.50
2019-02-07T13:44:48.743Z,4.50
2019-02-07T13:47:43.946Z,4.60
2019-02-07T13:50:43.020Z,4.70
2019-02-07T13:53:25.885Z,4.90
2019-02-07T13:56:14.326Z,4.90
2019-02-07T13:59:02.745Z,4.80
2019-02-07T14:01:46.604Z,4.70
2019-02-07T14:04:36.150Z,4.60
2019-02-07T14:07:24.658Z,4.70
2019-02-07T14:10:14.351Z,4.60
2019-02-07T14:13:03.357Z,4.50
2019-02-07T14:15:57.591Z,4.50
2019-02-07T14:18:45.984Z,4.40
2019-02-07T14:21:43.419Z,4.40
2019-02-07T14:24:24.766Z,4.60
2019-02-07T14:27:13.034Z,4.80
2019-02-07T14:30:00.519Z,4.80
2019-02-07T14:32:59.145Z,4.60
2019-02-07T14:35:47.376Z,4.70
2019-02-07T14:38:35.690Z,4.70
2019-02-07T14:41:24.094Z,4.60
2019-02-07T14:44:02.465Z,4.60
2019-02-07T14:46:48.070Z,4.30
2019-02-07T14:49:18.803Z,4.20
2019-02-07T14:51:49.576Z,4.20
2019-02-07T14:54:20.325Z,4.10
2019-02-07T14:56:51.447Z,4.20
2019-02-07T14:59:22.196Z,4.20
2019-02-07T15:01:53.021Z,4.00
2019-02-07T15:04:23.781Z,4.00
2019-02-07T15:06:56.047Z,3.90
2019-02-07T15:09:26.915Z,3.90
2019-02-07T15:11:57.603Z,3.90
2019-02-07T15:14:28.315Z,3.90
2019-02-07T15:16:59.045Z,3.80
2019-02-07T15:19:29.709Z,3.80
2019-02-07T15:22:00.747Z,3.70
2019-02-07T15:24:32.211Z,3.60
2019-02-07T15:27:02.867Z,3.60
2019-02-07T15:29:33.522Z,3.60
2019-02-07T15:32:04.301Z,3.50
2019-02-07T15:34:35.260Z,3.50
2019-02-07T15:37:06.034Z,3.40
2019-02-07T15:39:36.931Z,3.40
2019-02-07T15:42:07.760Z,3.40
2019-02-07T15:44:38.400Z,3.40
2019-02-07T15:47:09.630Z,3.30
2019-02-07T15:49:40.409Z,3.20
2019-02-07T15:52:11.672Z,3.20
2019-02-07T15:54:44.536Z,3.20
2019-02-07T15:57:16.021Z,3.10
2019-02-07T15:59:51.093Z,3.00
2019-02-07T16:02:26.127Z,3.00
2019-02-07T16:04:57.560Z,2.90
2019-02-07T16:07:28.364Z,2.90
2019-02-07T16:09:59.640Z,2.90
2019-02-07T16:12:30.578Z,3.00
2019-02-07T16:15:01.245Z,2.90
2019-02-07T16:17:31.946Z,2.90
2019-02-07T16:20:02.671Z,3.00
2019-02-07T16:22:33.529Z,2.90
2019-02-07T16:25:07.366Z,2.80
2019-02-07T16:27:38.887Z,2.90
2019-02-07T16:30:14.727Z,2.80
2019-02-07T16:32:45.680Z,2.90
2019-02-07T16:35:17.403Z,2.90
2019-02-07T16:37:48.079Z,2.80
2019-02-07T16:40:22.016Z,2.80
2019-02-07T16:42:52.973Z,2.80
2019-02-07T16:45:24.844Z,2.80
2019-02-07T16:47:55.499Z,2.80
2019-02-07T16:50:26.902Z,2.70
2019-02-07T16:52:57.604Z,2.70
2019-02-07T16:55:29.481Z,2.80
2019-02-07T16:58:00.664Z,2.70
2019-02-07T17:00:32.532Z,2.70
2019-02-07T17:03:04.027Z,2.80
2019-02-07T17:05:37.706Z,2.80
2019-02-07T17:08:07.830Z,2.80
2019-02-07T17:10:39.827Z,2.70
2019-02-07T17:13:11.937Z,2.70
2019-02-07T17:15:45.212Z,2.70
2019-02-07T17:18:18.502Z,2.70
2019-02-07T17:20:50.112Z,2.70
2019-02-07T17:23:21.323Z,2.80
2019-02-07T17:25:52.879Z,2.70
2019-02-07T17:28:24.378Z,2.80
2019-02-07T17:30:56.094Z,2.80
2019-02-07T17:33:28.226Z,2.80
2019-02-07T17:35:59.759Z,2.90
2019-02-07T17:38:31.052Z,2.80
2019-02-07T17:41:02.296Z,2.70
2019-02-07T17:43:34.395Z,2.70
2019-02-07T17:46:06.253Z,2.70
2019-02-07T17:48:37.590Z,2.60
2019-02-07T17:51:10.189Z,2.60
2019-02-07T17:53:41.646Z,2.60
2019-02-07T17:56:13.024Z,2.70
2019-02-07T17:58:44.447Z,2.60
2019-02-07T18:01:15.856Z,2.70
2019-02-07T18:03:50.040Z,2.70
2019-02-07T18:06:21.270Z,2.70
2019-02-07T18:08:52.404Z,2.70
2019-02-07T18:11:23.600Z,2.60
2019-02-07T18:13:54.384Z,2.60
2019-02-07T18:16:25.071Z,2.60
2019-02-07T18:18:56.693Z,2.50
2019-02-07T18:21:33.953Z,2.60
2019-02-07T18:24:00.501Z,2.60
2019-02-07T18:26:32.589Z,2.70
2019-02-07T18:29:03.806Z,2.60
2019-02-07T18:31:35.598Z,2.60
2019-02-07T18:34:06.956Z,2.70
2019-02-07T18:36:38.583Z,2.70
2019-02-07T18:39:11.789Z,2.70
2019-02-07T18:41:43.505Z,2.70
2019-02-07T18:44:15.133Z,2.70
2019-02-07T18:46:46.735Z,2.70
2019-02-07T18:49:17.835Z,2.60
2019-02-07T18:51:49.152Z,2.60
2019-02-07T18:54:20.600Z,2.60
2019-02-07T18:56:52.056Z,2.60
2019-02-07T18:59:23.265Z,2.60
2019-02-07T19:01:54.845Z,2.60
2019-02-07T19:04:37.046Z,2.60
2019-02-07T19:07:19.698Z,2.70
2019-02-07T19:09:59.488Z,2.60
2019-02-07T19:12:31.382Z,2.60
2019-02-07T19:15:02.883Z,2.60
2019-02-07T19:17:35.109Z,2.50
2019-02-07T19:20:15.453Z,2.60
2019-02-07T19:22:47.188Z,2.70
2019-02-07T19:25:19.589Z,2.70
2019-02-07T19:27:52.244Z,2.60
2019-02-07T19:30:27.539Z,2.60
2019-02-07T19:32:59.899Z,2.50
2019-02-07T19:35:31.932Z,2.60
2019-02-07T19:38:03.827Z,2.70
2019-02-07T19:40:35.257Z,2.80
2019-02-07T19:43:07.534Z,2.70
2019-02-07T19:45:38.820Z,2.60
2019-02-07T19:48:10.622Z,2.70
2019-02-07T19:50:41.903Z,2.70
2019-02-07T19:53:13.375Z,2.70
2019-02-07T19:55:44.626Z,2.70
2019-02-07T19:58:16.770Z,2.60
2019-02-07T20:00:48.239Z,2.60
2019-02-07T20:03:20.670Z,2.60
2019-02-07T20:05:52.807Z,2.50
2019-02-07T20:08:24.412Z,2.50
2019-02-07T20:10:55.611Z,2.60
2019-02-07T20:13:34.347Z,2.70
2019-02-07T20:16:06.171Z,2.50
2019-02-07T20:18:38.179Z,2.60
2019-02-07T20:21:09.508Z,2.60
2019-02-07T20:23:40.988Z,2.50
2019-02-07T20:26:12.429Z,2.50
2019-02-07T20:28:43.883Z,2.50
2019-02-07T20:31:15.037Z,2.60
2019-02-07T20:33:47.291Z,2.50
2019-02-07T20:36:18.600Z,2.50
2019-02-07T20:38:49.838Z,2.40
2019-02-07T20:41:21.752Z,2.50
2019-02-07T20:43:53.061Z,2.40
2019-02-07T20:46:29.350Z,2.40
2019-02-07T20:49:01.325Z,2.40
2019-02-07T20:51:32.655Z,2.50
2019-02-07T20:54:03.381Z,2.50
2019-02-07T20:56:34.787Z,2.50
2019-02-07T20:59:08.658Z,2.60
2019-02-07T21:01:39.693Z,2.50
2019-02-07T21:04:10.429Z,2.50
2019-02-07T21:06:42.272Z,2.60
2019-02-07T21:09:13.909Z,2.50
2019-02-07T21:11:45.163Z,2.50
2019-02-07T21:14:16.850Z,2.50
2019-02-07T21:16:48.211Z,2.50
2019-02-07T21:19:19.796Z,2.50
2019-02-07T21:21:51.197Z,2.50
2019-02-07T21:24:22.768Z,2.50
2019-02-07T21:26:54.142Z,2.40
2019-02-07T21:29:25.170Z,2.50
2019-02-07T21:31:55.850Z,2.60
2019-02-07T21:34:26.523Z,2.40
2019-02-07T21:36:58.032Z,2.40
2019-02-07T21:39:28.699Z,2.50
2019-02-07T21:41:59.870Z,2.50
2019-02-07T21:44:31.483Z,2.40
2019-02-07T21:47:02.872Z,2.40
2019-02-07T21:49:34.422Z,2.50
2019-02-07T21:52:05.690Z,2.40
2019-02-07T21:54:38.328Z,2.40
2019-02-07T21:57:09.896Z,2.40
2019-02-07T21:59:41.590Z,2.40
2019-02-07T22:02:12.944Z,2.40
2019-02-07T22:04:44.425Z,2.40
2019-02-07T22:07:15.583Z,2.40
2019-02-07T22:09:47.769Z,2.40
2019-02-07T22:12:19.146Z,2.30
2019-02-07T22:14:50.649Z,2.30
2019-02-07T22:17:22.225Z,2.30
2019-02-07T22:19:53.524Z,2.30
2019-02-07T22:22:25.511Z,2.30
2019-02-07T22:24:57.012Z,2.30
2019-02-07T22:27:27.763Z,2.20
2019-02-07T22:29:58.523Z,2.30
2019-02-07T22:32:29.375Z,2.20
2019-02-07T22:35:00.097Z,2.20
2019-02-07T22:37:31.014Z,2.30
2019-02-07T22:40:04.382Z,2.20
2019-02-07T22:42:35.081Z,2.20
2019-02-07T22:45:08.353Z,2.20
2019-02-07T22:47:41.448Z,2.20
2019-02-07T22:50:20.757Z,2.10
2019-02-07T22:52:56.747Z,2.10
2019-02-07T22:55:25.616Z,2.10
2019-02-07T22:57:57.752Z,2.30
2019-02-07T23:01:49.077Z,2.20
2019-02-07T23:04:21.953Z,2.20
2019-02-07T23:06:53.562Z,2.10
2019-02-07T23:09:24.997Z,2.20
2019-02-07T23:11:56.995Z,2.20
2019-02-07T23:14:28.200Z,2.20
2019-02-07T23:16:59.402Z,2.20
2019-02-07T23:19:30.843Z,2.10
2019-02-07T23:22:02.563Z,2.10
2019-02-07T23:24:34.448Z,2.10
2019-02-07T23:27:06.361Z,2.10
2019-02-07T23:29:37.784Z,2.10
2019-02-07T23:32:09.318Z,2.10
2019-02-07T23:34:40.863Z,2.20
2019-02-07T23:37:12.807Z,2.20
2019-02-07T23:39:44.859Z,2.10
2019-02-07T23:42:16.539Z,2.10
2019-02-07T23:44:47.975Z,2.20
2019-02-07T23:47:19.203Z,2.20
2019-02-07T23:49:50.555Z,2.20
2019-02-07T23:52:21.790Z,2.10
2019-02-07T23:54:53.286Z,2.10
2019-02-07T23:57:24.687Z,2.20
2019-02-07T23:59:56.041Z,2.20
